Steamboat Springs, Colorado
Current Conditions -  °F | °C
As of 1:55 PM on Tuesday 25 Nov 2014 (Local Time) from KSBS Reporting Station
Overcast Overcast  
Wind Chill: 17°   Ceiling: 3100
Heat Index: 23°   Visibility: 5mi
Dew Point: 20°   Wind: 5mph
Humidity: 91%   Direction: 120°ESE
Pressure: 30.16"   Gusts: NA
Location:  40.49°N, 106.83°W
Report Text: KSBS 252055Z AUTO 12004KT 5SM BKN031 OVC040 M05/M06 A3016 RMK AO1 T10521065
Loading
Personal Weather Stations






























Interactive Weather Map New forecast layout! Learn more

10-Day Weather Forecast

Advertisements
Track Severe Weather on mobile